createdAt,value
2018-11-14T00:02:17.707Z,11.70
2018-11-14T00:04:45.878Z,11.60
2018-11-14T00:07:14.045Z,11.60
2018-11-14T00:09:42.226Z,11.60
2018-11-14T00:12:17.012Z,11.60
2018-11-14T00:14:45.116Z,11.80
2018-11-14T00:17:13.218Z,11.60
2018-11-14T00:19:41.350Z,11.60
2018-11-14T00:22:09.556Z,11.80
2018-11-14T00:24:37.686Z,11.60
2018-11-14T00:27:05.797Z,11.50
2018-11-14T00:29:33.913Z,11.60
2018-11-14T00:32:02.230Z,11.70
2018-11-14T00:34:30.427Z,11.70
2018-11-14T00:36:58.506Z,11.80
2018-11-14T00:39:26.609Z,11.50
2018-11-14T00:44:18.588Z,11.60
2018-11-14T00:46:46.765Z,11.70
2018-11-14T00:49:14.933Z,11.50
2018-11-14T00:51:43.132Z,11.30
2018-11-14T00:54:11.287Z,11.80
2018-11-14T00:56:39.417Z,11.80
2018-11-14T00:59:07.605Z,11.70
2018-11-14T01:01:35.936Z,11.70
2018-11-14T01:04:03.981Z,11.60
2018-11-14T01:06:32.133Z,11.70
2018-11-14T01:09:01.069Z,11.70
2018-11-14T01:11:29.233Z,11.70
2018-11-14T01:13:57.434Z,11.70
2018-11-14T01:16:25.568Z,11.40
2018-11-14T01:18:54.271Z,11.40
2018-11-14T01:21:22.424Z,11.20
2018-11-14T01:23:50.559Z,11.20
2018-11-14T01:26:18.711Z,11.40
2018-11-14T01:28:46.860Z,11.40
2018-11-14T01:31:15.042Z,11.30
2018-11-14T01:33:43.210Z,11.30
2018-11-14T01:36:11.414Z,11.40
2018-11-14T01:38:39.548Z,11.30
2018-11-14T01:41:07.744Z,11.20
2018-11-14T01:43:35.885Z,11.20
2018-11-14T01:46:04.024Z,11.10
2018-11-14T01:48:32.194Z,11.20
2018-11-14T01:51:00.366Z,11.20
2018-11-14T01:53:28.592Z,11.20
2018-11-14T01:55:56.727Z,11.20
2018-11-14T01:58:24.869Z,11.20
2018-11-14T02:00:53.040Z,11.20
2018-11-14T02:03:21.193Z,11.30
2018-11-14T02:05:49.416Z,11.30
2018-11-14T02:08:17.588Z,11.10
2018-11-14T02:10:45.721Z,11.20
2018-11-14T02:13:13.948Z,11.30
2018-11-14T02:15:42.102Z,11.40
2018-11-14T02:18:10.292Z,11.20
2018-11-14T02:20:38.419Z,11.20
2018-11-14T02:23:06.588Z,11.30
2018-11-14T02:25:34.736Z,11.30
2018-11-14T02:28:02.863Z,11.40
2018-11-14T02:30:31.033Z,11.30
2018-11-14T02:32:59.177Z,11.10
2018-11-14T02:35:27.352Z,11.30
2018-11-14T02:37:55.479Z,11.40
2018-11-14T02:40:23.648Z,11.20
2018-11-14T02:42:51.807Z,11.10
2018-11-14T02:45:20.046Z,11.20
2018-11-14T02:47:48.229Z,11.20
2018-11-14T02:50:17.184Z,11.10
2018-11-14T02:52:45.322Z,11.10
2018-11-14T02:55:14.485Z,11.00
2018-11-14T02:57:42.930Z,11.00
2018-11-14T03:00:19.297Z,11.00
2018-11-14T03:02:47.438Z,10.90
2018-11-14T03:05:15.609Z,11.00
2018-11-14T03:07:43.775Z,11.10
2018-11-14T03:10:14.750Z,11.00
2018-11-14T03:12:43.025Z,11.00
2018-11-14T03:15:15.249Z,11.10
2018-11-14T03:17:43.383Z,11.00
2018-11-14T03:20:13.789Z,11.00
2018-11-14T03:22:41.945Z,10.90
2018-11-14T03:25:11.269Z,11.00
2018-11-14T03:27:39.444Z,11.00
2018-11-14T03:30:09.633Z,10.90
2018-11-14T03:32:37.944Z,10.90
2018-11-14T03:35:06.773Z,10.90
2018-11-14T03:37:34.949Z,10.80
2018-11-14T03:40:03.193Z,10.80
2018-11-14T03:42:31.341Z,10.80
2018-11-14T03:44:59.515Z,10.80
2018-11-14T03:47:27.641Z,10.70
2018-11-14T03:49:55.777Z,10.80
2018-11-14T03:52:24.033Z,10.80
2018-11-14T03:54:52.220Z,10.90
2018-11-14T03:57:20.644Z,10.80
2018-11-14T03:59:48.792Z,10.90
2018-11-14T04:02:16.993Z,10.70
2018-11-14T04:04:45.144Z,10.90
2018-11-14T04:07:13.266Z,10.90
2018-11-14T04:09:41.426Z,10.90
2018-11-14T04:12:09.582Z,10.90
2018-11-14T04:14:37.721Z,10.70
2018-11-14T04:17:05.891Z,10.70
2018-11-14T04:19:34.037Z,10.80
2018-11-14T04:22:02.225Z,10.90
2018-11-14T04:24:30.407Z,11.00
2018-11-14T04:26:58.546Z,10.90
2018-11-14T04:29:26.665Z,10.90
2018-11-14T04:31:54.794Z,10.70
2018-11-14T04:34:22.946Z,10.90
2018-11-14T04:36:51.226Z,10.90
2018-11-14T04:39:19.442Z,10.90
2018-11-14T04:41:47.688Z,10.70
2018-11-14T04:44:15.863Z,10.80
2018-11-14T04:46:44.054Z,10.90
2018-11-14T04:49:12.203Z,10.80
2018-11-14T04:51:40.378Z,10.70
2018-11-14T04:54:08.513Z,10.80
2018-11-14T04:56:36.628Z,10.70
2018-11-14T04:59:04.740Z,10.60
2018-11-14T05:01:32.924Z,10.40
2018-11-14T05:04:01.065Z,10.60
2018-11-14T05:06:29.230Z,10.50
2018-11-14T05:08:57.387Z,10.50
2018-11-14T05:11:25.778Z,10.60
2018-11-14T05:13:53.932Z,10.70
2018-11-14T05:16:22.278Z,10.80
2018-11-14T05:18:50.450Z,10.70
2018-11-14T05:21:18.637Z,10.40
2018-11-14T05:23:46.809Z,10.50
2018-11-14T05:26:14.953Z,10.60
2018-11-14T05:28:43.078Z,10.40
2018-11-14T05:31:11.230Z,10.40
2018-11-14T05:33:39.549Z,10.30
2018-11-14T05:36:07.693Z,10.50
2018-11-14T05:38:35.938Z,10.50
2018-11-14T05:41:05.878Z,10.40
2018-11-14T05:43:35.897Z,10.50
2018-11-14T05:46:04.062Z,10.40
2018-11-14T05:48:32.211Z,10.70
2018-11-14T05:51:00.334Z,10.60
2018-11-14T05:53:28.479Z,10.70
2018-11-14T05:55:56.630Z,10.80
2018-11-14T05:58:24.746Z,10.60
2018-11-14T06:00:52.911Z,10.70
2018-11-14T06:03:21.102Z,10.70
2018-11-14T06:05:49.259Z,10.80
2018-11-14T06:08:17.406Z,10.50
2018-11-14T06:10:45.527Z,10.50
2018-11-14T06:13:14.173Z,10.70
2018-11-14T06:15:42.314Z,10.70
2018-11-14T06:18:10.490Z,10.70
2018-11-14T06:20:38.625Z,10.80
2018-11-14T06:23:06.807Z,10.80
2018-11-14T06:25:37.113Z,10.70
2018-11-14T06:28:06.429Z,10.70
2018-11-14T06:30:35.454Z,10.60
2018-11-14T06:33:04.575Z,10.40
2018-11-14T06:35:32.730Z,10.50
2018-11-14T06:38:02.198Z,10.50
2018-11-14T06:40:30.426Z,10.70
2018-11-14T06:42:58.580Z,10.60
2018-11-14T06:45:27.997Z,10.60
2018-11-14T06:47:57.257Z,10.50
2018-11-14T06:50:25.425Z,10.60
2018-11-14T06:52:54.989Z,10.70
2018-11-14T06:55:23.112Z,10.90
2018-11-14T06:57:51.387Z,11.00
2018-11-14T07:00:24.571Z,11.00
2018-11-14T07:02:53.045Z,11.10
2018-11-14T07:05:21.244Z,10.90
2018-11-14T07:07:49.471Z,10.90
2018-11-14T07:10:18.783Z,10.90
2018-11-14T07:12:46.945Z,11.00
2018-11-14T07:15:16.425Z,10.90
2018-11-14T07:17:45.248Z,10.80
2018-11-14T07:20:19.890Z,10.90
2018-11-14T07:22:48.021Z,10.80
2018-11-14T07:25:16.463Z,10.90
2018-11-14T07:27:45.849Z,11.10
2018-11-14T07:30:16.974Z,11.20
2018-11-14T07:32:46.575Z,11.00
2018-11-14T07:35:15.579Z,10.90
2018-11-14T07:37:48.476Z,11.00
2018-11-14T07:40:16.687Z,10.80
2018-11-14T07:42:44.877Z,11.00
2018-11-14T07:45:14.165Z,10.90
2018-11-14T07:47:42.550Z,10.70
2018-11-14T07:50:14.241Z,10.70
2018-11-14T07:52:43.219Z,10.80
2018-11-14T07:55:12.037Z,10.70
2018-11-14T07:57:40.303Z,10.90
2018-11-14T08:00:16.546Z,11.00
2018-11-14T08:02:44.952Z,11.00
2018-11-14T08:05:13.349Z,10.90
2018-11-14T08:07:41.485Z,10.90
2018-11-14T08:10:11.141Z,10.90
2018-11-14T08:12:39.326Z,10.80
2018-11-14T08:15:08.236Z,10.90
2018-11-14T08:17:36.394Z,11.00
2018-11-14T08:20:06.674Z,10.90
2018-11-14T08:22:34.870Z,11.00
2018-11-14T08:25:03.244Z,11.10
2018-11-14T08:27:31.354Z,11.10
2018-11-14T08:29:59.509Z,11.20
2018-11-14T08:32:27.716Z,11.20
2018-11-14T08:34:55.855Z,11.20
2018-11-14T08:37:24.034Z,11.30
2018-11-14T08:39:52.233Z,11.20
2018-11-14T08:42:20.470Z,11.10
2018-11-14T08:44:48.659Z,11.30
2018-11-14T08:47:16.793Z,11.30
2018-11-14T08:49:44.920Z,11.20
2018-11-14T08:52:13.102Z,11.30
2018-11-14T08:54:41.311Z,11.30
2018-11-14T08:57:09.477Z,11.30
2018-11-14T08:59:37.718Z,11.20
2018-11-14T09:02:06.217Z,11.20
2018-11-14T09:04:34.374Z,11.20
2018-11-14T09:07:02.557Z,11.30
2018-11-14T09:09:30.738Z,11.40
2018-11-14T09:11:58.888Z,11.40
2018-11-14T09:14:27.130Z,11.40
2018-11-14T09:16:55.210Z,11.30
2018-11-14T09:19:23.339Z,11.20
2018-11-14T09:21:51.506Z,11.30
2018-11-14T09:24:20.065Z,11.20
2018-11-14T09:26:48.251Z,11.20
2018-11-14T09:29:16.407Z,11.10
2018-11-14T09:31:44.578Z,11.10
2018-11-14T09:34:12.766Z,11.10
2018-11-14T09:36:41.161Z,11.10
2018-11-14T09:39:10.902Z,11.20
2018-11-14T09:41:39.101Z,11.30
2018-11-14T09:44:07.235Z,11.40
2018-11-14T09:46:36.013Z,11.50
2018-11-14T09:49:04.383Z,11.30
2018-11-14T09:51:32.582Z,11.40
2018-11-14T09:54:00.854Z,11.40
2018-11-14T09:56:29.078Z,11.50
2018-11-14T09:58:57.208Z,11.60
2018-11-14T10:01:25.377Z,11.60
2018-11-14T10:03:53.544Z,11.60
2018-11-14T10:06:21.718Z,11.50
2018-11-14T10:08:49.973Z,11.50
2018-11-14T10:11:18.118Z,11.50
2018-11-14T10:13:46.503Z,11.40
2018-11-14T10:16:14.704Z,11.40
2018-11-14T10:18:42.945Z,11.50
2018-11-14T10:21:11.138Z,11.60
2018-11-14T10:23:39.261Z,11.60
2018-11-14T10:26:07.420Z,11.60
2018-11-14T10:28:35.593Z,11.60
2018-11-14T10:31:03.777Z,11.40
2018-11-14T10:33:31.939Z,11.20
2018-11-14T10:36:00.097Z,11.30
2018-11-14T10:38:28.256Z,11.50
2018-11-14T10:40:56.410Z,11.50
2018-11-14T10:43:24.666Z,11.40
2018-11-14T10:45:52.872Z,11.50
2018-11-14T10:48:21.011Z,11.50
2018-11-14T10:50:49.297Z,11.70
2018-11-14T10:53:17.501Z,11.90
2018-11-14T10:55:45.685Z,11.60
2018-11-14T10:58:13.907Z,11.40
2018-11-14T11:00:52.213Z,11.50
2018-11-14T11:03:25.854Z,11.40
2018-11-14T11:05:59.469Z,11.50
2018-11-14T11:08:33.127Z,11.60
2018-11-14T11:11:06.654Z,11.60
2018-11-14T11:13:40.608Z,11.50
2018-11-14T11:16:14.210Z,11.30
2018-11-14T11:18:42.405Z,11.40
2018-11-14T11:21:10.633Z,11.70
2018-11-14T11:23:38.913Z,11.80
2018-11-14T11:26:08.865Z,11.80
2018-11-14T11:28:37.048Z,11.80
2018-11-14T11:31:05.255Z,11.80
2018-11-14T11:33:33.674Z,11.60
2018-11-14T11:36:01.808Z,11.50
2018-11-14T11:38:30.057Z,11.60
2018-11-14T11:40:58.247Z,11.70
2018-11-14T11:43:26.452Z,11.90
2018-11-14T11:45:54.689Z,11.60
2018-11-14T11:48:22.829Z,11.60
2018-11-14T11:50:51.085Z,11.60
2018-11-14T11:53:19.153Z,11.60
2018-11-14T11:55:47.372Z,11.70
2018-11-14T11:58:16.235Z,11.70
2018-11-14T12:00:44.881Z,11.70
2018-11-14T12:03:13.223Z,11.80
2018-11-14T12:05:41.464Z,11.70
2018-11-14T12:08:09.608Z,11.60
2018-11-14T12:10:37.899Z,11.70
2018-11-14T12:13:06.038Z,11.90
2018-11-14T12:15:34.192Z,11.90
2018-11-14T12:18:02.404Z,11.70
2018-11-14T12:20:30.534Z,11.80
2018-11-14T12:22:58.712Z,11.90
2018-11-14T12:25:26.898Z,11.80
2018-11-14T12:27:55.167Z,11.90
2018-11-14T12:30:23.408Z,11.80
2018-11-14T12:32:51.590Z,11.80
2018-11-14T12:35:19.874Z,11.90
2018-11-14T12:37:47.957Z,12.00
2018-11-14T12:40:16.125Z,12.00
2018-11-14T12:42:44.506Z,12.00
2018-11-14T12:45:15.470Z,12.00
2018-11-14T12:47:43.515Z,12.20
2018-11-14T12:50:12.638Z,12.30
2018-11-14T12:52:41.101Z,12.40
2018-11-14T12:55:12.900Z,12.30
2018-11-14T12:57:42.917Z,12.40
2018-11-14T13:00:13.180Z,12.40
2018-11-14T13:02:41.344Z,12.40
2018-11-14T13:05:10.791Z,12.30
2018-11-14T13:07:40.258Z,12.20
2018-11-14T13:10:10.319Z,12.20
2018-11-14T13:12:38.741Z,12.40
2018-11-14T13:15:08.248Z,12.30
2018-11-14T13:17:37.055Z,12.20
2018-11-14T13:20:09.923Z,12.40
2018-11-14T13:22:38.272Z,12.40
2018-11-14T13:25:10.702Z,12.40
2018-11-14T13:27:39.519Z,12.30
2018-11-14T13:30:12.494Z,12.20
2018-11-14T13:32:40.875Z,12.30
2018-11-14T13:35:11.177Z,12.40
2018-11-14T13:37:39.483Z,12.40
2018-11-14T13:40:08.794Z,12.40
2018-11-14T13:42:37.089Z,12.30
2018-11-14T13:45:06.814Z,12.30
2018-11-14T13:47:35.402Z,12.30
2018-11-14T13:50:03.933Z,12.40
2018-11-14T13:52:32.287Z,12.50
2018-11-14T13:55:00.552Z,12.40
2018-11-14T13:57:28.917Z,12.30
2018-11-14T13:59:57.284Z,12.30
2018-11-14T14:02:25.506Z,12.40
2018-11-14T14:04:53.817Z,12.40
2018-11-14T14:07:22.554Z,12.50
2018-11-14T14:09:51.046Z,12.50
2018-11-14T14:12:19.448Z,12.60
2018-11-14T14:14:47.815Z,12.50
2018-11-14T14:17:16.111Z,12.50
2018-11-14T14:19:44.547Z,12.60
2018-11-14T14:22:13.159Z,12.60
2018-11-14T14:24:42.333Z,12.60
2018-11-14T14:27:10.897Z,12.70
2018-11-14T14:29:39.196Z,12.60
2018-11-14T14:32:08.948Z,12.60
2018-11-14T14:34:37.267Z,12.70
2018-11-14T14:37:12.109Z,12.60
2018-11-14T14:39:42.473Z,12.70
2018-11-14T14:42:10.786Z,12.60
2018-11-14T14:44:39.609Z,12.70
2018-11-14T14:47:07.883Z,12.60
2018-11-14T14:49:36.174Z,12.60
2018-11-14T14:52:04.556Z,12.50
2018-11-14T14:54:32.893Z,12.50
2018-11-14T14:57:01.460Z,12.60
2018-11-14T14:59:29.724Z,12.60
2018-11-14T15:01:57.875Z,12.60
2018-11-14T15:04:26.075Z,12.60
2018-11-14T15:06:54.234Z,12.60
2018-11-14T15:09:22.559Z,12.60
2018-11-14T15:11:50.694Z,12.60
2018-11-14T15:14:18.837Z,12.60
2018-11-14T15:16:46.921Z,12.50
2018-11-14T15:19:15.103Z,12.50
2018-11-14T15:21:43.452Z,12.50
2018-11-14T15:24:18.087Z,12.60
2018-11-14T15:26:46.269Z,12.60
2018-11-14T15:29:14.398Z,12.60
2018-11-14T15:31:44.319Z,12.60
2018-11-14T15:34:12.485Z,12.60
2018-11-14T15:36:40.674Z,12.50
2018-11-14T15:39:10.456Z,12.50
2018-11-14T15:41:38.777Z,12.50
2018-11-14T15:44:07.019Z,12.50
2018-11-14T15:46:35.148Z,12.40
2018-11-14T15:49:03.306Z,12.40
2018-11-14T15:51:32.162Z,12.40
2018-11-14T15:54:00.320Z,12.50
2018-11-14T15:56:28.469Z,12.50
2018-11-14T15:58:56.722Z,12.50
2018-11-14T16:01:24.853Z,12.60
2018-11-14T16:03:52.978Z,12.50
2018-11-14T16:06:21.146Z,12.50
2018-11-14T16:08:49.274Z,12.50
2018-11-14T16:11:17.408Z,12.60
2018-11-14T16:13:49.783Z,12.60
2018-11-14T16:16:17.893Z,12.50
2018-11-14T16:18:49.129Z,12.60
2018-11-14T16:21:17.262Z,12.70
2018-11-14T16:23:47.333Z,12.60
2018-11-14T16:26:15.453Z,12.60
2018-11-14T16:28:43.625Z,12.60
2018-11-14T16:31:11.867Z,12.60
2018-11-14T16:33:39.974Z,12.60
2018-11-14T16:36:08.102Z,12.60
2018-11-14T16:38:36.216Z,12.60
2018-11-14T16:41:04.362Z,12.60
2018-11-14T16:43:32.525Z,12.60
2018-11-14T16:46:00.744Z,12.60
2018-11-14T16:48:28.910Z,12.50
2018-11-14T16:50:57.053Z,12.40
2018-11-14T16:53:25.221Z,12.40
2018-11-14T16:55:53.357Z,12.50
2018-11-14T16:58:21.449Z,12.50
2018-11-14T17:00:49.597Z,12.50
2018-11-14T17:03:17.712Z,12.50
2018-11-14T17:05:45.841Z,12.60
2018-11-14T17:08:14.006Z,12.60
2018-11-14T17:10:42.129Z,12.60
2018-11-14T17:13:10.294Z,12.60
2018-11-14T17:15:38.438Z,12.60
2018-11-14T17:18:06.580Z,12.70
2018-11-14T17:20:34.723Z,12.60
2018-11-14T17:23:02.868Z,12.60
2018-11-14T17:25:31.032Z,12.70
2018-11-14T17:27:59.129Z,12.70
2018-11-14T17:30:28.219Z,12.60
2018-11-14T17:32:56.421Z,12.60
2018-11-14T17:35:24.546Z,12.50
2018-11-14T17:37:52.701Z,12.50
2018-11-14T17:40:25.721Z,12.60
2018-11-14T17:42:54.331Z,12.60
2018-11-14T17:45:25.212Z,12.60
2018-11-14T17:47:54.862Z,12.50
2018-11-14T17:50:25.565Z,12.50
2018-11-14T17:52:54.115Z,12.60
2018-11-14T17:55:22.896Z,12.60
2018-11-14T17:57:51.098Z,12.50
2018-11-14T18:00:23.487Z,12.50
2018-11-14T18:02:51.665Z,12.50
2018-11-14T18:05:21.106Z,12.60
2018-11-14T18:07:49.951Z,12.60
2018-11-14T18:10:19.485Z,12.60
2018-11-14T18:12:48.526Z,12.60
2018-11-14T18:15:16.766Z,12.60
2018-11-14T18:17:45.205Z,12.70
2018-11-14T18:20:15.680Z,12.70
2018-11-14T18:22:44.540Z,12.70
2018-11-14T18:25:13.054Z,12.70
2018-11-14T18:27:41.166Z,12.70
2018-11-14T18:30:14.629Z,12.70
2018-11-14T18:32:42.728Z,12.70
2018-11-14T18:35:12.749Z,12.70
2018-11-14T18:37:41.341Z,12.70
2018-11-14T18:40:11.370Z,12.60
2018-11-14T18:42:39.990Z,12.60
2018-11-14T18:45:10.680Z,12.70
2018-11-14T18:47:38.777Z,12.60
2018-11-14T18:50:08.191Z,12.60
2018-11-14T18:52:36.281Z,12.60
2018-11-14T18:55:05.481Z,12.60
2018-11-14T18:57:33.633Z,12.60
2018-11-14T19:00:01.765Z,12.60
2018-11-14T19:02:29.856Z,12.60
2018-11-14T19:04:57.958Z,12.60
2018-11-14T19:07:26.053Z,12.60
2018-11-14T19:09:54.161Z,12.50
2018-11-14T19:12:22.275Z,12.50
2018-11-14T19:14:50.392Z,12.50
2018-11-14T19:17:18.625Z,12.50
2018-11-14T19:19:46.734Z,12.50
2018-11-14T19:22:15.125Z,12.50
2018-11-14T19:24:43.610Z,12.40
2018-11-14T19:27:11.824Z,12.40
2018-11-14T19:29:40.116Z,12.40
2018-11-14T19:32:08.389Z,12.30
2018-11-14T19:34:36.582Z,12.30
2018-11-14T19:37:04.855Z,12.30
2018-11-14T19:39:33.249Z,12.30
2018-11-14T19:42:01.498Z,12.40
2018-11-14T19:44:29.916Z,12.30
2018-11-14T19:46:58.160Z,12.40
2018-11-14T19:49:26.423Z,12.30
2018-11-14T19:51:54.771Z,12.30
2018-11-14T19:54:23.000Z,12.30
2018-11-14T19:56:51.373Z,12.30
2018-11-14T19:59:19.699Z,12.40
2018-11-14T20:01:48.030Z,12.30
2018-11-14T20:04:16.184Z,12.30
2018-11-14T20:06:44.453Z,12.30
2018-11-14T20:09:12.869Z,12.30
2018-11-14T20:11:41.157Z,12.30
2018-11-14T20:14:09.312Z,12.20
2018-11-14T20:16:37.482Z,12.30
2018-11-14T20:19:06.000Z,12.30
2018-11-14T20:21:34.170Z,12.30
2018-11-14T20:24:02.345Z,12.30
2018-11-14T20:26:30.492Z,12.20
2018-11-14T20:28:58.581Z,12.20
2018-11-14T20:31:26.874Z,12.30
2018-11-14T20:33:54.931Z,12.30
2018-11-14T20:36:23.023Z,12.20
2018-11-14T20:38:51.176Z,12.20
2018-11-14T20:41:19.272Z,12.20
2018-11-14T20:43:47.418Z,12.20
2018-11-14T20:46:15.513Z,12.20
2018-11-14T20:48:43.666Z,12.10
2018-11-14T20:51:11.778Z,12.10
2018-11-14T20:53:39.918Z,12.10
2018-11-14T20:56:08.007Z,12.20
2018-11-14T20:58:36.136Z,12.10
2018-11-14T21:01:04.633Z,12.10
2018-11-14T21:03:32.781Z,12.10
2018-11-14T21:06:00.882Z,12.10
2018-11-14T21:08:29.056Z,12.10
2018-11-14T21:10:57.209Z,12.10
2018-11-14T21:13:25.304Z,12.10
2018-11-14T21:15:53.458Z,12.20
2018-11-14T21:18:21.557Z,12.20
2018-11-14T21:20:49.670Z,12.20
2018-11-14T21:23:17.785Z,12.10
2018-11-14T21:25:45.902Z,12.10
2018-11-14T21:28:14.003Z,12.10
2018-11-14T21:30:42.102Z,12.10
2018-11-14T21:33:10.197Z,12.10
2018-11-14T21:35:38.323Z,12.00
2018-11-14T21:38:07.652Z,12.00
2018-11-14T21:40:35.717Z,12.00
2018-11-14T21:43:03.815Z,12.00
2018-11-14T21:45:31.925Z,12.00
2018-11-14T21:48:05.373Z,11.90
2018-11-14T21:50:33.745Z,11.80
2018-11-14T21:53:01.944Z,11.80
2018-11-14T21:55:30.085Z,11.80
2018-11-14T21:57:58.200Z,11.80
2018-11-14T22:00:41.941Z,11.80
2018-11-14T22:03:10.721Z,11.80
2018-11-14T22:05:39.317Z,11.90
2018-11-14T22:08:07.421Z,11.90
2018-11-14T22:10:35.550Z,11.90
2018-11-14T22:13:03.666Z,11.90
2018-11-14T22:15:32.134Z,11.80
2018-11-14T22:18:00.289Z,11.80
2018-11-14T22:20:29.076Z,11.80
2018-11-14T22:22:57.201Z,11.90
2018-11-14T22:25:26.452Z,11.80
2018-11-14T22:27:54.653Z,11.70
2018-11-14T22:30:26.577Z,11.70
2018-11-14T22:32:54.710Z,11.70
2018-11-14T22:35:24.144Z,11.80
2018-11-14T22:37:52.397Z,11.70
2018-11-14T22:40:22.721Z,11.60
2018-11-14T22:42:50.929Z,11.70
2018-11-14T22:45:20.449Z,11.70
2018-11-14T22:47:48.835Z,11.80
2018-11-14T22:50:18.347Z,11.70
2018-11-14T22:52:46.904Z,11.60
2018-11-14T22:55:16.206Z,11.70
2018-11-14T22:57:45.072Z,11.80
2018-11-14T23:00:20.190Z,11.70
2018-11-14T23:02:50.069Z,11.60
2018-11-14T23:05:18.327Z,11.70
2018-11-14T23:07:47.531Z,11.70
2018-11-14T23:10:15.758Z,11.70
2018-11-14T23:12:43.873Z,11.60
2018-11-14T23:15:11.984Z,11.60
2018-11-14T23:17:40.128Z,11.60
2018-11-14T23:20:11.098Z,11.50
2018-11-14T23:22:39.681Z,11.60
2018-11-14T23:25:08.125Z,11.50
2018-11-14T23:27:36.254Z,11.60
2018-11-14T23:30:05.659Z,11.50
2018-11-14T23:32:33.757Z,11.60
2018-11-14T23:35:07.436Z,11.60
2018-11-14T23:37:35.538Z,11.60
2018-11-14T23:40:03.687Z,11.70
2018-11-14T23:42:31.790Z,11.70
2018-11-14T23:44:59.876Z,11.80
2018-11-14T23:47:28.001Z,11.70
2018-11-14T23:49:56.098Z,11.70
2018-11-14T23:52:24.238Z,11.70
2018-11-14T23:54:52.329Z,11.70
2018-11-14T23:57:20.733Z,11.60
2018-11-14T23:59:48.841Z,11.60
